Time;durP1;ratioP1;P1;durP2;ratioP2;P2;SDS_P1;SDS_P2;PMS_P1;PMS_P2;Temp;Humidity;BMP_temperature;BMP_pressure;BME280_temperature;BME280_humidity;BME280_pressure;Samples;Min_cycle;Max_cycle;Signal;HPM_P1;HPM_P2
2023/06/25 00:01:33;;;;;;;10.65;6.38;;;;;;;32.67;35.84;102134.38;5056369;28;20030;-72
2023/06/25 00:03:59;;;;;;;8.57;6.00;;;;;;;32.67;36.14;102134.38;5092748;28;20020;-73
2023/06/25 00:06:24;;;;;;;10.50;6.03;;;;;;;32.69;36.04;102123.47;5070562;28;20067;-72
2023/06/25 00:08:50;;;;;;;11.00;5.75;;;;;;;32.37;37.29;102113.47;5054211;28;20360;-72
2023/06/25 00:11:15;;;;;;;9.75;5.53;;;;;;;32.42;36.82;102114.81;5054402;28;20026;-73
2023/06/25 00:13:41;;;;;;;9.48;5.50;;;;;;;32.30;37.09;102114.00;5053774;28;20537;-72
2023/06/25 00:16:07;;;;;;;11.75;6.55;;;;;;;32.84;36.29;102108.66;5054203;28;20117;-73
2023/06/25 00:18:33;;;;;;;9.50;6.32;;;;;;;32.47;37.07;102117.16;5054019;28;20024;-73
2023/06/25 00:21:00;;;;;;;9.70;5.57;;;;;;;32.35;37.38;102107.34;5086468;28;20032;-72
2023/06/25 00:23:26;;;;;;;9.63;5.60;;;;;;;32.09;37.90;102102.22;5074700;28;20502;-73
2023/06/25 00:25:51;;;;;;;10.45;6.20;;;;;;;32.33;37.20;102104.78;5074226;28;20028;-71
2023/06/25 00:28:17;;;;;;;11.75;6.05;;;;;;;32.30;37.14;102089.66;5074065;28;20024;-73
2023/06/25 00:30:42;;;;;;;11.43;5.93;;;;;;;32.36;37.09;102093.69;5071844;28;20064;-72
2023/06/25 00:33:08;;;;;;;8.70;5.72;;;;;;;32.45;37.38;102086.63;5058858;28;20443;-71
2023/06/25 00:36:06;;;;;;;9.80;5.68;;;;;;;32.23;37.98;102084.88;5062978;28;20028;-73
2023/06/25 00:38:32;;;;;;;9.43;5.63;;;;;;;32.40;37.67;102092.44;5073707;28;20028;-71
2023/06/25 00:40:57;;;;;;;8.45;5.10;;;;;;;32.28;37.87;102083.50;5091142;28;20024;-73
2023/06/25 00:43:23;;;;;;;9.57;5.57;;;;;;;32.63;37.37;102079.69;5064246;28;20032;-72
2023/06/25 00:45:48;;;;;;;7.35;5.22;;;;;;;32.65;37.03;102077.69;5058891;28;20024;-73
2023/06/25 00:48:13;;;;;;;8.38;5.60;;;;;;;32.19;38.06;102087.00;5058518;28;20035;-72
2023/06/25 00:50:39;;;;;;;5.90;5.00;;;;;;;32.37;37.57;102071.06;5053306;28;20074;-73
2023/06/25 00:53:10;;;;;;;9.75;5.60;;;;;;;32.44;37.48;102076.81;5054992;28;20093;-72
2023/06/25 00:55:36;;;;;;;9.38;5.82;;;;;;;32.34;37.74;102068.59;5052841;28;20059;-74
2023/06/25 00:58:01;;;;;;;8.75;5.43;;;;;;;32.35;37.71;102053.25;5071645;28;20033;-72
2023/06/25 01:00:28;;;;;;;8.50;5.22;;;;;;;32.34;37.35;102056.94;5067733;28;20024;-73
2023/06/25 01:03:27;;;;;;;9.73;5.32;;;;;;;32.33;37.82;102055.22;5054219;28;20025;-72
2023/06/25 01:06:35;;;;;;;8.95;6.07;;;;;;;32.34;37.65;102056.94;5053465;28;20476;-73
2023/06/25 01:09:02;;;;;;;9.45;5.18;;;;;;;32.21;38.06;102051.72;4989484;28;20121;-72
2023/06/25 01:11:30;;;;;;;9.10;5.93;;;;;;;32.38;37.26;102053.00;4976836;28;20038;-72
2023/06/25 01:13:56;;;;;;;8.85;5.75;;;;;;;31.72;38.69;102053.88;5031662;28;20049;-72
2023/06/25 01:16:21;;;;;;;12.48;6.03;;;;;;;31.81;38.29;102045.03;5054984;28;20043;-72
2023/06/25 01:18:48;;;;;;;13.73;6.25;;;;;;;31.56;38.89;102040.69;5062036;28;20024;-73
2023/06/25 01:21:17;;;;;;;11.27;6.05;;;;;;;31.73;38.54;102036.69;5068062;28;20023;-73
2023/06/25 01:23:42;;;;;;;9.38;6.13;;;;;;;32.03;38.42;102040.56;5052355;28;20055;-73
2023/06/25 01:26:08;;;;;;;13.95;6.53;;;;;;;31.94;38.20;102039.44;5071272;28;20477;-71
2023/06/25 01:28:35;;;;;;;10.48;5.93;;;;;;;31.92;38.28;102042.28;5071520;28;20028;-72
2023/06/25 01:31:02;;;;;;;9.02;6.10;;;;;;;31.76;38.41;102039.13;5053751;28;20032;-72
2023/06/25 01:33:28;;;;;;;14.23;7.35;;;;;;;32.21;37.44;102030.91;5089141;28;20035;-72
2023/06/25 01:35:53;;;;;;;11.50;6.78;;;;;;;32.36;37.34;102015.25;5072552;28;20197;-73
2023/06/25 01:38:19;;;;;;;9.60;6.20;;;;;;;31.96;38.24;102018.56;5090959;28;20058;-73
2023/06/25 01:40:45;;;;;;;10.38;6.43;;;;;;;32.19;37.50;102019.38;5068769;28;20036;-74
2023/06/25 01:43:10;;;;;;;9.18;6.65;;;;;;;31.34;38.96;102009.16;5072961;28;20035;-74
2023/06/25 01:45:36;;;;;;;10.75;6.65;;;;;;;31.57;38.87;102008.19;5052134;28;20016;-73
2023/06/25 01:48:01;;;;;;;14.18;8.43;;;;;;;31.49;39.12;101997.16;5053068;28;20037;-73
2023/06/25 01:50:27;;;;;;;12.35;6.70;;;;;;;31.71;38.39;102006.22;5069769;28;20020;-73
2023/06/25 01:52:53;;;;;;;13.25;6.85;;;;;;;31.71;38.51;102000.81;5051566;28;20024;-73
2023/06/25 01:55:18;;;;;;;12.40;7.10;;;;;;;31.59;38.97;101998.13;5052616;28;20060;-73
2023/06/25 01:57:44;;;;;;;10.65;6.78;;;;;;;31.11;39.76;101992.97;5070397;28;20056;-73
2023/06/25 02:00:11;;;;;;;10.80;6.70;;;;;;;31.43;38.83;101994.94;5054543;28;20422;-72
2023/06/25 02:02:36;;;;;;;12.80;7.93;;;;;;;30.57;40.72;101989.94;5068503;28;20043;-71
2023/06/25 02:05:02;;;;;;;15.55;8.45;;;;;;;30.98;39.77;101992.19;5053567;28;20028;-73
2023/06/25 02:07:28;;;;;;;13.20;7.18;;;;;;;31.19;39.58;101987.81;5052474;28;20419;-72
2023/06/25 02:09:53;;;;;;;14.38;7.78;;;;;;;31.36;39.12;101975.66;5052559;28;20060;-73
2023/06/25 02:12:19;;;;;;;14.63;7.68;;;;;;;30.99;39.87;101983.13;5052364;28;20532;-73
2023/06/25 02:14:44;;;;;;;15.23;8.57;;;;;;;30.81;40.81;101975.50;5066004;28;20435;-73
2023/06/25 02:17:10;;;;;;;14.05;8.00;;;;;;;31.19;39.49;101977.03;5064239;28;20483;-72
2023/06/25 02:19:35;;;;;;;13.25;8.05;;;;;;;30.77;40.33;101968.63;5052095;28;20028;-73
2023/06/25 02:22:00;;;;;;;16.77;8.43;;;;;;;31.16;39.20;101969.19;5052778;28;20032;-73
2023/06/25 02:24:26;;;;;;;16.00;8.27;;;;;;;31.33;39.23;101969.66;5068159;28;20047;-73
2023/06/25 02:26:51;;;;;;;18.58;9.48;;;;;;;30.75;39.92;101955.25;5070957;28;20101;-72
2023/06/25 02:29:17;;;;;;;20.00;9.07;;;;;;;30.61;41.04;101967.13;5090850;28;20400;-71
2023/06/25 02:31:42;;;;;;;15.63;9.00;;;;;;;30.43;40.87;101965.81;5055672;28;20106;-72
2023/06/25 02:34:08;;;;;;;19.77;9.52;;;;;;;30.43;40.84;101960.41;5054813;28;20033;-73
2023/06/25 02:36:33;;;;;;;16.38;9.32;;;;;;;30.77;40.45;101960.53;5070172;28;20032;-72
2023/06/25 02:38:58;;;;;;;15.57;9.38;;;;;;;30.85;40.13;101960.78;5051679;28;20020;-72
2023/06/25 02:41:24;;;;;;;17.88;9.82;;;;;;;30.55;40.87;101954.09;5069800;28;20028;-72
2023/06/25 02:43:49;;;;;;;15.75;9.35;;;;;;;30.65;40.57;101956.09;5054952;28;20572;-72
2023/06/25 02:46:14;;;;;;;15.80;9.18;;;;;;;30.93;39.82;101955.63;5070149;28;20040;-72
2023/06/25 02:48:42;;;;;;;17.95;9.20;;;;;;;31.14;39.73;101946.84;5069187;28;20033;-73
2023/06/25 02:51:09;;;;;;;14.40;9.40;;;;;;;31.08;39.58;101948.19;5070316;28;20090;-72
2023/06/25 02:53:37;;;;;;;15.90;9.15;;;;;;;31.19;39.25;101947.31;5053649;28;20090;-72
2023/06/25 02:56:03;;;;;;;16.95;9.98;;;;;;;30.86;39.71;101946.31;5080412;28;20052;-72
2023/06/25 02:58:28;;;;;;;15.15;8.88;;;;;;;31.00;39.49;101942.50;5068641;28;21114;-72
2023/06/25 03:00:54;;;;;;;15.57;9.52;;;;;;;30.98;40.00;101949.00;5072131;28;20281;-72
2023/06/25 03:03:19;;;;;;;19.90;9.07;;;;;;;30.81;40.16;101945.81;5056519;28;20069;-72
2023/06/25 03:05:44;;;;;;;16.52;9.48;;;;;;;30.74;40.50;101947.28;5072035;28;20118;-73
2023/06/25 03:08:10;;;;;;;16.90;10.15;;;;;;;31.23;39.24;101940.69;5072618;28;20074;-73
2023/06/25 03:10:37;;;;;;;17.63;9.35;;;;;;;31.32;38.84;101951.72;5050968;28;20032;-73
2023/06/25 03:13:03;;;;;;;16.80;9.43;;;;;;;31.11;39.23;101949.78;5069329;28;20024;-72
2023/06/25 03:15:28;;;;;;;14.57;9.00;;;;;;;30.86;39.83;101945.44;5063989;28;20384;-74
2023/06/25 03:17:54;;;;;;;15.82;9.18;;;;;;;30.21;41.40;101951.31;5089997;28;20277;-74
2023/06/25 03:20:19;;;;;;;17.48;9.60;;;;;;;30.21;41.01;101945.91;5054578;28;20488;-72
2023/06/25 03:22:46;;;;;;;13.93;9.48;;;;;;;30.34;40.61;101945.81;5066721;28;20028;-72
2023/06/25 03:25:11;;;;;;;16.65;9.52;;;;;;;30.89;39.83;101946.06;5069581;28;20036;-72
2023/06/25 03:27:37;;;;;;;17.25;9.02;;;;;;;30.11;41.35;101934.09;5068830;28;20032;-74
2023/06/25 03:30:03;;;;;;;19.45;10.45;;;;;;;30.62;40.38;101936.47;5068913;28;20369;-74
2023/06/25 03:32:29;;;;;;;16.75;9.85;;;;;;;30.32;40.72;101931.56;5071433;28;20463;-73
2023/06/25 03:34:55;;;;;;;15.10;9.20;;;;;;;30.62;39.92;101928.41;5058696;28;20382;-73
2023/06/25 03:37:21;;;;;;;16.02;9.57;;;;;;;30.44;40.61;101929.81;5051796;28;20036;-72
2023/06/25 03:39:46;;;;;;;15.15;8.68;;;;;;;30.42;40.72;101931.75;5068970;28;20020;-72
2023/06/25 03:42:12;;;;;;;19.52;9.90;;;;;;;30.07;41.15;101933.47;5093749;28;20027;-72
2023/06/25 03:44:54;;;;;;;20.10;8.77;;;;;;;30.35;41.00;101925.09;5067379;28;20025;-72
2023/06/25 03:47:20;;;;;;;15.63;9.63;;;;;;;30.25;40.52;101931.22;5055763;28;20036;-72
2023/06/25 03:49:46;;;;;;;16.02;10.15;;;;;;;30.33;40.70;101932.47;5084814;28;20111;-72
2023/06/25 03:52:11;;;;;;;17.02;10.10;;;;;;;29.83;41.25;101936.16;5076036;28;20047;-73
2023/06/25 03:54:37;;;;;;;20.13;9.88;;;;;;;29.54;42.13;101931.09;5055855;28;20028;-73
2023/06/25 03:57:02;;;;;;;16.80;9.98;;;;;;;29.20;43.01;101928.13;5074038;28;20146;-73
2023/06/25 03:59:28;;;;;;;18.08;10.02;;;;;;;28.41;45.27;101930.94;5073479;28;20060;-73
2023/06/25 04:01:53;;;;;;;17.92;9.95;;;;;;;29.56;42.03;101928.28;5060265;28;20487;-72
2023/06/25 04:04:19;;;;;;;20.30;10.32;;;;;;;29.44;42.31;101924.66;5055132;28;20400;-72
2023/06/25 04:06:44;;;;;;;20.02;9.68;;;;;;;29.81;41.81;101927.31;5053448;28;20054;-72
2023/06/25 04:09:09;;;;;;;16.33;9.98;;;;;;;28.94;43.60;101928.16;5059675;28;20379;-72
2023/06/25 04:11:35;;;;;;;17.88;10.32;;;;;;;29.28;43.13;101920.41;5073861;28;20024;-73
2023/06/25 04:14:00;;;;;;;20.02;10.43;;;;;;;29.69;42.15;101922.84;5074815;28;20027;-72
2023/06/25 04:16:26;;;;;;;20.33;9.93;;;;;;;29.93;41.42;101922.88;5060023;28;20028;-73
2023/06/25 04:18:53;;;;;;;17.23;10.23;;;;;;;29.76;42.26;101916.03;5059198;28;20178;-73
2023/06/25 04:21:18;;;;;;;16.13;9.98;;;;;;;30.18;41.32;101916.47;5085965;28;20035;-73
2023/06/25 04:23:44;;;;;;;15.55;9.45;;;;;;;30.07;41.08;101916.44;5053934;28;20028;-72
2023/06/25 04:26:09;;;;;;;18.13;10.10;;;;;;;29.81;41.86;101911.16;5063024;28;20028;-72
2023/06/25 04:28:35;;;;;;;17.40;9.68;;;;;;;29.86;41.78;101914.41;5072214;28;20036;-73
2023/06/25 04:31:00;;;;;;;20.13;10.50;;;;;;;30.28;40.89;101914.81;5055326;28;20020;-73
2023/06/25 04:33:26;;;;;;;18.13;11.50;;;;;;;30.20;40.98;101919.91;5054480;28;20431;-73
2023/06/25 04:35:51;;;;;;;17.88;10.00;;;;;;;30.58;40.56;101926.03;5054439;28;20040;-72
2023/06/25 04:38:17;;;;;;;18.65;10.07;;;;;;;30.09;41.04;101919.88;5054903;28;20016;-74
2023/06/25 04:40:42;;;;;;;17.33;10.13;;;;;;;29.87;41.65;101917.94;5053638;28;20024;-72
2023/06/25 04:43:07;;;;;;;13.65;8.85;;;;;;;30.38;40.95;101924.88;5071260;28;20024;-74
2023/06/25 04:45:33;;;;;;;23.00;10.63;;;;;;;29.85;42.48;101917.22;5057537;28;20016;-74
2023/06/25 04:47:58;;;;;;;21.45;11.05;;;;;;;30.22;41.89;101923.34;5086618;28;20031;-72
2023/06/25 04:50:24;;;;;;;16.17;9.52;;;;;;;31.77;38.61;101920.09;5081174;28;20036;-72
2023/06/25 04:52:49;;;;;;;16.30;9.30;;;;;;;32.64;37.42;101912.75;5055600;28;20115;-72
2023/06/25 04:55:14;;;;;;;17.67;9.35;;;;;;;33.71;34.80;101916.84;5071054;28;20024;-72
2023/06/25 04:57:40;;;;;;;13.73;8.48;;;;;;;34.29;33.30;101907.84;5059284;28;20476;-72
2023/06/25 05:00:06;;;;;;;16.80;9.00;;;;;;;35.12;31.82;101904.47;5077720;28;20025;-72
2023/06/25 05:02:32;;;;;;;12.18;8.07;;;;;;;36.26;31.27;101906.59;5053904;28;20119;-72
2023/06/25 05:04:57;;;;;;;12.98;8.18;;;;;;;36.45;29.41;101910.16;5070430;28;20108;-72
2023/06/25 05:07:22;;;;;;;14.55;8.50;;;;;;;36.87;28.79;101906.66;5074056;28;20434;-72
2023/06/25 05:09:48;;;;;;;14.40;8.55;;;;;;;36.28;29.68;101907.28;5071959;28;20019;-73
2023/06/25 05:12:13;;;;;;;17.40;9.20;;;;;;;37.75;27.94;101908.09;5074075;28;20092;-74
2023/06/25 05:14:39;;;;;;;15.23;8.20;;;;;;;38.17;26.89;101907.09;5080137;28;20024;-72
2023/06/25 05:17:04;;;;;;;12.18;8.07;;;;;;;38.07;26.92;101916.47;5071139;28;20047;-72
2023/06/25 05:19:30;;;;;;;14.50;8.93;;;;;;;37.48;27.45;101926.47;5058055;28;20028;-73
2023/06/25 05:21:55;;;;;;;15.65;8.40;;;;;;;37.69;26.87;101927.88;5071065;28;20361;-73
2023/06/25 05:24:21;;;;;;;13.50;8.00;;;;;;;38.15;26.87;101919.19;5053255;28;20553;-72
2023/06/25 05:26:46;;;;;;;14.52;8.65;;;;;;;37.84;27.01;101922.63;5070553;28;20028;-73
2023/06/25 05:29:11;;;;;;;14.50;8.13;;;;;;;37.29;27.67;101916.72;5052647;28;20431;-72
2023/06/25 05:31:37;;;;;;;13.30;7.75;;;;;;;36.87;28.20;101919.44;5070474;28;20039;-72
2023/06/25 05:34:02;;;;;;;12.13;7.60;;;;;;;35.99;29.61;101922.03;5053368;28;20050;-72
2023/06/25 05:36:29;;;;;;;15.65;9.30;;;;;;;34.92;30.55;101917.28;5052467;28;20028;-71
2023/06/25 05:38:54;;;;;;;18.08;9.05;;;;;;;34.32;32.08;101911.16;5074777;28;20032;-73
2023/06/25 05:41:20;;;;;;;13.50;8.52;;;;;;;34.30;32.39;101910.44;5071496;28;20032;-72
2023/06/25 05:43:45;;;;;;;16.38;8.75;;;;;;;33.73;33.14;101917.56;5052114;28;20033;-73
2023/06/25 05:46:13;;;;;;;18.23;9.55;;;;;;;33.29;33.95;101918.78;5052831;28;20199;-73
2023/06/25 05:48:39;;;;;;;14.15;8.57;;;;;;;33.37;34.08;101922.66;5085313;28;20020;-72
2023/06/25 05:51:04;;;;;;;17.17;10.15;;;;;;;33.21;33.83;101925.84;5090847;28;20093;-72
2023/06/25 05:53:38;;;;;;;14.55;8.15;;;;;;;32.76;35.01;101921.69;5074469;28;20052;-73
2023/06/25 05:56:04;;;;;;;15.25;9.38;;;;;;;32.87;35.07;101923.47;5070680;28;20136;-73
2023/06/25 05:58:30;;;;;;;18.50;9.95;;;;;;;32.22;35.88;101923.59;5070216;28;20103;-73
2023/06/25 06:00:55;;;;;;;14.80;8.65;;;;;;;33.18;34.55;101918.88;5050048;28;20522;-72
2023/06/25 06:03:20;;;;;;;15.73;9.38;;;;;;;34.25;33.06;101915.44;5072699;28;20028;-73
2023/06/25 06:05:46;;;;;;;19.15;9.77;;;;;;;35.19;31.68;101927.28;5071900;28;20020;-72
2023/06/25 06:08:11;;;;;;;17.80;9.52;;;;;;;35.39;31.15;101925.31;5056058;28;20040;-73
2023/06/25 06:10:37;;;;;;;17.00;9.18;;;;;;;34.89;32.35;101918.44;5060414;28;20088;-73
2023/06/25 06:13:02;;;;;;;15.05;9.00;;;;;;;35.17;31.86;101926.56;5070666;28;20040;-73
2023/06/25 06:15:28;;;;;;;13.98;8.80;;;;;;;35.67;30.92;101926.13;5052608;28;20044;-72
2023/06/25 06:17:53;;;;;;;14.05;8.40;;;;;;;38.05;27.77;101913.09;5052877;28;20038;-73
2023/06/25 06:20:18;;;;;;;14.15;8.30;;;;;;;39.42;25.50;101921.19;5051999;28;20538;-72
2023/06/25 06:22:45;;;;;;;12.82;7.32;;;;;;;40.84;23.86;101909.66;5057463;28;20036;-72
2023/06/25 06:25:10;;;;;;;13.68;7.97;;;;;;;42.22;22.49;101912.38;5052351;28;20062;-73
2023/06/25 06:27:36;;;;;;;13.82;8.20;;;;;;;42.42;22.35;101908.94;5050686;28;20032;-73
2023/06/25 06:30:01;;;;;;;13.40;8.35;;;;;;;42.85;22.45;101914.25;5052875;28;20043;-74
2023/06/25 06:32:26;;;;;;;13.23;8.15;;;;;;;43.43;21.21;101912.97;5055498;28;20035;-75
2023/06/25 06:34:52;;;;;;;14.90;7.88;;;;;;;42.45;20.83;101916.78;5052954;28;20028;-74
2023/06/25 06:37:17;;;;;;;12.90;7.68;;;;;;;44.25;19.17;101910.88;5087305;28;20039;-73
2023/06/25 06:39:42;;;;;;;13.40;7.63;;;;;;;43.58;20.26;101910.06;5065338;28;20030;-73
2023/06/25 06:42:08;;;;;;;12.65;8.05;;;;;;;43.45;20.72;101910.88;5073180;28;20434;-73
2023/06/25 06:44:33;;;;;;;14.30;8.65;;;;;;;43.16;21.32;101893.66;5052256;28;20021;-73
2023/06/25 06:46:59;;;;;;;13.98;7.75;;;;;;;42.75;21.16;101900.06;5051326;28;20024;-73
2023/06/25 06:49:24;;;;;;;12.52;7.60;;;;;;;44.51;19.17;101898.97;5051487;28;20077;-72
2023/06/25 06:51:50;;;;;;;9.68;6.82;;;;;;;44.36;19.87;101895.63;5057324;28;20077;-74
2023/06/25 06:54:15;;;;;;;13.25;7.93;;;;;;;44.50;18.67;101894.50;5069859;28;20063;-73
2023/06/25 06:56:41;;;;;;;10.57;7.43;;;;;;;43.28;20.71;101900.25;5071477;28;20051;-73
2023/06/25 06:59:06;;;;;;;12.40;7.05;;;;;;;43.35;19.94;101892.84;5090170;28;20028;-74
2023/06/25 07:01:33;;;;;;;14.00;7.57;;;;;;;44.11;19.63;101899.06;5053146;28;20500;-73
2023/06/25 07:03:58;;;;;;;13.80;7.28;;;;;;;44.75;20.42;101909.53;5053649;28;20039;-74
2023/06/25 07:06:24;;;;;;;12.88;7.68;;;;;;;45.44;18.00;101907.88;5065442;28;20024;-73
2023/06/25 07:08:49;;;;;;;9.50;6.45;;;;;;;45.29;17.81;101905.44;5071379;28;20032;-72
2023/06/25 07:11:18;;;;;;;10.40;7.13;;;;;;;45.56;17.52;101908.03;5075165;28;20110;-72
2023/06/25 07:13:44;;;;;;;10.35;6.85;;;;;;;46.03;17.38;101899.34;5053294;28;20112;-73
2023/06/25 07:16:10;;;;;;;8.88;6.15;;;;;;;45.94;19.30;101896.06;5072573;28;20117;-73
2023/06/25 07:18:35;;;;;;;9.15;6.65;;;;;;;46.71;16.37;101901.19;5054836;28;20048;-70
2023/06/25 07:21:01;;;;;;;10.00;6.65;;;;;;;47.70;16.26;101897.19;5055115;28;20035;-71
2023/06/25 07:23:26;;;;;;;10.20;6.25;;;;;;;47.26;17.25;101891.09;5055104;28;20035;-72
2023/06/25 07:25:51;;;;;;;9.30;5.70;;;;;;;46.28;17.50;101891.06;5054081;28;20119;-71
2023/06/25 07:28:17;;;;;;;9.30;6.35;;;;;;;46.99;16.21;101896.13;5073057;28;20038;-71
2023/06/25 07:30:42;;;;;;;8.18;5.70;;;;;;;48.33;15.37;101905.88;5053818;28;20111;-71
2023/06/25 07:33:07;;;;;;;8.98;6.15;;;;;;;48.33;15.43;101900.34;5060617;28;20369;-71
2023/06/25 07:35:33;;;;;;;10.85;6.75;;;;;;;46.01;16.46;101891.31;5075124;28;20073;-72
2023/06/25 07:37:58;;;;;;;10.73;6.15;;;;;;;45.98;17.94;101890.94;5064741;28;20027;-71
2023/06/25 07:40:24;;;;;;;8.98;5.88;;;;;;;46.69;16.55;101884.00;5064639;28;20126;-72
2023/06/25 07:42:49;;;;;;;9.13;6.03;;;;;;;46.97;16.45;101888.06;5059109;28;20024;-71
2023/06/25 07:45:14;;;;;;;9.82;6.75;;;;;;;46.82;16.94;101888.50;5066160;28;20094;-71
2023/06/25 07:47:40;;;;;;;8.20;6.32;;;;;;;48.70;14.91;101877.84;5058877;28;20029;-73
2023/06/25 07:50:06;;;;;;;7.70;6.07;;;;;;;48.20;15.07;101879.28;5054637;28;20053;-73
2023/06/25 07:52:32;;;;;;;8.20;5.30;;;;;;;48.53;14.59;101875.03;5066384;28;20040;-73
2023/06/25 07:54:57;;;;;;;8.95;5.80;;;;;;;47.81;14.80;101878.09;5071196;28;20191;-72
2023/06/25 07:57:23;;;;;;;8.40;5.78;;;;;;;48.59;14.58;101870.41;5053779;28;20496;-72
2023/06/25 07:59:48;;;;;;;10.23;6.68;;;;;;;47.20;15.74;101875.44;5071623;28;20599;-73
2023/06/25 08:02:14;;;;;;;9.95;6.30;;;;;;;48.84;14.73;101877.53;5070159;28;20138;-72
2023/06/25 08:04:39;;;;;;;10.40;6.00;;;;;;;49.42;14.90;101867.22;5060586;28;20475;-73
2023/06/25 08:07:05;;;;;;;8.63;5.35;;;;;;;49.55;14.28;101872.44;5034535;28;20147;-72
2023/06/25 08:09:31;;;;;;;8.32;6.30;;;;;;;48.88;14.79;101876.00;5081309;28;20020;-72
2023/06/25 08:11:57;;;;;;;8.10;5.60;;;;;;;48.84;15.01;101874.78;5080675;28;20024;-73
2023/06/25 08:14:22;;;;;;;6.47;4.47;;;;;;;49.32;13.58;101867.91;5081244;28;20019;-73
2023/06/25 08:16:48;;;;;;;7.35;4.88;;;;;;;48.36;13.78;101872.13;5091285;28;20024;-72
2023/06/25 08:19:13;;;;;;;7.35;5.28;;;;;;;49.02;13.59;101869.03;5054186;28;20033;-73
2023/06/25 08:21:39;;;;;;;6.75;4.90;;;;;;;49.43;13.63;101862.53;5057723;28;20016;-72
2023/06/25 08:24:04;;;;;;;9.10;5.15;;;;;;;49.06;15.36;101856.34;5064624;28;20437;-72
2023/06/25 08:26:30;;;;;;;6.72;4.95;;;;;;;49.84;13.22;101854.84;5079498;28;20647;-72
2023/06/25 08:28:55;;;;;;;10.98;5.45;;;;;;;48.56;14.41;101855.13;5068966;28;20024;-72
2023/06/25 08:31:21;;;;;;;5.72;3.85;;;;;;;48.98;13.20;101855.91;5065024;28;20031;-73
2023/06/25 08:33:46;;;;;;;4.25;3.45;;;;;;;49.59;12.70;101839.50;5053959;28;20020;-72
2023/06/25 08:36:12;;;;;;;6.45;4.40;;;;;;;50.42;12.18;101847.88;5054003;28;20036;-73
2023/06/25 08:38:37;;;;;;;6.22;4.40;;;;;;;49.33;13.47;101841.84;5061982;28;20024;-72
2023/06/25 08:41:03;;;;;;;5.18;4.03;;;;;;;49.24;12.69;101848.91;5065826;28;20028;-72
2023/06/25 08:43:28;;;;;;;6.00;3.85;;;;;;;50.10;12.31;101847.75;5061835;28;20029;-72
2023/06/25 08:45:54;;;;;;;4.85;3.42;;;;;;;49.36;13.23;101846.88;5073336;28;20558;-73
2023/06/25 08:48:23;;;;;;;5.15;3.10;;;;;;;49.86;12.18;101844.31;5072190;28;20441;-72
2023/06/25 08:50:54;;;;;;;5.95;3.58;;;;;;;49.63;11.30;101839.81;5072781;28;20674;-71
2023/06/25 08:53:20;;;;;;;5.05;3.05;;;;;;;50.58;12.43;101834.16;5065753;28;20063;-73
2023/06/25 08:55:48;;;;;;;4.63;3.05;;;;;;;49.56;12.86;101829.72;5055801;28;20374;-72
2023/06/25 08:58:13;;;;;;;5.35;3.60;;;;;;;48.56;13.06;101826.56;5071483;28;20029;-72
2023/06/25 09:00:38;;;;;;;4.90;3.00;;;;;;;49.80;13.01;101825.91;5068919;28;20028;-72
2023/06/25 09:03:04;;;;;;;5.57;3.92;;;;;;;50.60;11.62;101820.81;5075676;28;20055;-72
2023/06/25 09:05:30;;;;;;;5.53;3.63;;;;;;;50.23;11.94;101829.81;5068927;28;20493;-73
2023/06/25 09:07:56;;;;;;;3.95;3.03;;;;;;;49.94;11.80;101829.97;5063797;28;20024;-72
2023/06/25 09:10:22;;;;;;;3.85;2.90;;;;;;;49.87;11.74;101823.78;5063324;28;20079;-72
2023/06/25 09:12:49;;;;;;;3.47;2.83;;;;;;;49.03;12.78;101825.50;5053384;28;20107;-72
2023/06/25 09:15:23;;;;;;;5.65;3.08;;;;;;;48.47;12.01;101817.75;5070795;28;20024;-72
2023/06/25 09:17:54;;;;;;;5.03;3.38;;;;;;;47.50;14.00;101819.19;5104336;28;20024;-73
2023/06/25 09:20:21;;;;;;;4.00;2.53;;;;;;;48.18;12.02;101814.13;5062205;28;20039;-73
2023/06/25 09:22:55;;;;;;;3.28;2.33;;;;;;;48.32;12.05;101818.28;5069057;28;20492;-72
2023/06/25 09:25:26;;;;;;;3.20;2.67;;;;;;;47.93;13.31;101819.91;5073216;28;20035;-72
2023/06/25 09:27:52;;;;;;;5.18;2.95;;;;;;;49.55;12.60;101816.09;5057613;28;20543;-73
2023/06/25 09:30:21;;;;;;;3.72;2.60;;;;;;;46.66;13.61;101809.84;5052130;28;20028;-73
2023/06/25 09:32:54;;;;;;;4.03;2.80;;;;;;;48.29;13.76;101810.47;5064122;28;20414;-73
2023/06/25 09:35:22;;;;;;;4.53;2.75;;;;;;;49.86;12.26;101813.75;5066939;28;20063;-74
2023/06/25 09:37:51;;;;;;;4.32;3.17;;;;;;;50.33;11.96;101813.31;5051986;28;20131;-74
2023/06/25 09:40:16;;;;;;;3.45;2.70;;;;;;;50.75;11.62;101807.09;5055154;28;20577;-74
2023/06/25 09:42:44;;;;;;;3.15;2.55;;;;;;;50.78;12.40;101805.72;5055249;28;20119;-73
2023/06/25 09:45:14;;;;;;;3.17;2.22;;;;;;;50.69;11.79;101808.16;5054932;28;20025;-73
2023/06/25 09:47:42;;;;;;;3.70;2.53;;;;;;;48.60;12.69;101804.72;5067749;28;20399;-73
2023/06/25 09:50:16;;;;;;;4.43;2.70;;;;;;;47.01;12.94;101802.75;5060921;28;20029;-73
2023/06/25 09:52:47;;;;;;;7.10;2.08;;;;;;;48.82;12.79;101805.69;5076390;28;20597;-73
2023/06/25 09:55:13;;;;;;;;;;;;;;;49.03;11.33;101801.34;5057245;28;20027;-72
2023/06/25 09:57:39;;;;;;;3.03;2.20;;;;;;;47.63;11.99;101802.34;5037938;28;19935;-73
2023/06/25 10:00:05;;;;;;;2.22;1.90;;;;;;;46.68;12.62;101796.59;5046738;28;20024;-72
2023/06/25 10:02:31;;;;;;;5.13;1.95;;;;;;;48.44;12.30;101798.03;5045923;28;20395;-72
2023/06/25 10:04:56;;;;;;;3.35;2.20;;;;;;;48.80;12.32;101787.63;5041110;28;20025;-72
2023/06/25 10:07:24;;;;;;;2.30;1.95;;;;;;;49.00;11.49;101790.78;5041631;28;20039;-72
2023/06/25 10:09:56;;;;;;;2.40;2.15;;;;;;;46.92;12.66;101785.59;5048089;28;20067;-72
2023/06/25 10:12:22;;;;;;;2.30;2.00;;;;;;;48.73;12.65;101782.22;5030920;28;20032;-72
2023/06/25 10:14:48;;;;;;;3.40;2.25;;;;;;;47.17;12.95;101784.59;5059239;28;20028;-72
2023/06/25 10:17:14;;;;;;;3.75;2.42;;;;;;;47.06;13.14;101784.38;5037770;28;20098;-72
2023/06/25 10:19:51;;;;;;;2.60;2.40;;;;;;;49.03;11.39;101776.41;5052987;28;20104;-73
2023/06/25 10:22:24;;;;;;;3.13;2.13;;;;;;;47.84;12.28;101770.44;5040017;28;20024;-72
2023/06/25 10:24:51;;;;;;;3.53;2.28;;;;;;;47.79;12.37;101766.72;5011016;28;20739;-72
2023/06/25 10:27:26;;;;;;;2.88;2.42;;;;;;;49.34;12.74;101760.28;5044981;28;20091;-72
2023/06/25 10:29:52;;;;;;;4.30;2.30;;;;;;;49.00;12.41;101760.25;5044059;28;20036;-72
2023/06/25 10:32:30;;;;;;;3.22;2.22;;;;;;;46.98;12.80;101757.03;5065475;28;20048;-72
2023/06/25 10:34:59;;;;;;;2.13;1.90;;;;;;;47.73;12.36;101750.00;5057492;28;20024;-72
2023/06/25 10:37:32;;;;;;;3.15;2.35;;;;;;;48.43;11.94;101743.66;5053605;28;20025;-73
2023/06/25 10:40:09;;;;;;;2.40;2.20;;;;;;;48.40;12.97;101745.84;5042250;28;20107;-73
2023/06/25 10:42:36;;;;;;;3.92;2.20;;;;;;;47.35;12.77;101751.31;5060159;28;20031;-73
2023/06/25 10:45:03;;;;;;;2.88;2.28;;;;;;;48.20;12.46;101748.22;5047867;28;20040;-73
2023/06/25 10:47:29;;;;;;;2.88;2.17;;;;;;;47.59;12.94;101745.78;5063472;28;20020;-73
2023/06/25 10:49:54;;;;;;;3.45;1.90;;;;;;;48.33;12.10;101728.53;5055107;28;20174;-73
2023/06/25 10:52:20;;;;;;;3.00;2.25;;;;;;;46.75;13.01;101732.09;5050629;28;20102;-73
2023/06/25 10:54:46;;;;;;;2.95;2.20;;;;;;;48.47;13.07;101734.59;5051404;28;20039;-73
2023/06/25 10:57:13;;;;;;;4.40;2.60;;;;;;;49.34;13.20;101728.88;5053423;28;20424;-73
2023/06/25 10:59:40;;;;;;;2.70;2.50;;;;;;;48.23;12.36;101723.63;5054134;28;20028;-72
2023/06/25 11:02:20;;;;;;;2.47;2.20;;;;;;;46.51;13.39;101729.22;5055391;28;20033;-73
2023/06/25 11:04:53;;;;;;;3.33;2.40;;;;;;;47.79;13.39;101717.75;5043078;28;20025;-71
2023/06/25 11:07:19;;;;;;;2.97;2.40;;;;;;;47.73;14.03;101719.53;5034412;28;20147;-73
2023/06/25 11:09:50;;;;;;;3.00;2.30;;;;;;;47.02;13.39;101719.53;5054971;28;20029;-73
2023/06/25 11:12:17;;;;;;;4.50;2.33;;;;;;;47.07;13.93;101721.56;5034846;28;20119;-73
2023/06/25 11:14:43;;;;;;;3.58;2.63;;;;;;;47.05;13.77;101724.59;5037860;28;20051;-72
2023/06/25 11:17:08;;;;;;;3.53;2.42;;;;;;;48.19;14.25;101713.31;5053662;28;20472;-72